createdAt,value
2022-11-07T00:02:32.459Z,60.44631
2022-11-07T00:07:34.099Z,60.9833
2022-11-07T00:12:35.721Z,62.16502
2022-11-07T00:17:37.461Z,63.55598
2022-11-07T00:22:39.193Z,62.30447
2022-11-07T00:27:40.847Z,62.06366
2022-11-07T00:32:42.570Z,64.18754
2022-11-07T00:37:44.232Z,60.94435
2022-11-07T00:42:45.883Z,62.54546
2022-11-07T00:47:47.579Z,63.27808
2022-11-07T00:52:49.306Z,62.62847
2022-11-07T00:57:51.041Z,62.06765
2022-11-07T01:02:52.819Z,62.47949
2022-11-07T01:07:55.097Z,59.98252
2022-11-07T01:12:56.732Z,60.29527
2022-11-07T01:17:58.516Z,61.19282
2022-11-07T01:23:00.168Z,60.21444
2022-11-07T01:28:01.791Z,60.83025
2022-11-07T01:33:03.491Z,63.48776
2022-11-07T01:38:05.295Z,61.58135
2022-11-07T01:43:06.912Z,60.81238
2022-11-07T01:48:08.604Z,63.58045
2022-11-07T01:53:10.302Z,63.92724
2022-11-07T01:58:11.915Z,63.92253
2022-11-07T02:03:13.937Z,59.81784
2022-11-07T02:08:15.881Z,60.77241
2022-11-07T02:13:17.614Z,59.08373
2022-11-07T02:18:19.237Z,59.85811
2022-11-07T02:23:21.017Z,61.3874
2022-11-07T02:28:22.673Z,63.21423
2022-11-07T02:33:24.386Z,60.17683
2022-11-07T02:38:25.998Z,59.89533
2022-11-07T02:43:27.673Z,60.00467
2022-11-07T02:48:29.426Z,59.68342
2022-11-07T02:53:31.093Z,57.10976
2022-11-07T02:58:32.768Z,57.98648
2022-11-07T03:03:34.468Z,60.55088
2022-11-07T03:08:36.168Z,61.47263
2022-11-07T03:13:37.814Z,61.13422
2022-11-07T03:18:39.493Z,62.24387
2022-11-07T03:23:41.207Z,60.42699
2022-11-07T03:28:42.855Z,59.43279
2022-11-07T03:33:46.583Z,59.74856
2022-11-07T03:38:48.224Z,59.68283
2022-11-07T03:43:49.900Z,58.42996
2022-11-07T03:48:51.533Z,58.92159
2022-11-07T03:53:53.116Z,62.52149
2022-11-07T03:58:54.726Z,64.57384
2022-11-07T04:03:56.562Z,60.78581
2022-11-07T04:08:58.259Z,59.07483
2022-11-07T04:13:59.918Z,62.29441
2022-11-07T04:19:01.793Z,57.21312
2022-11-07T04:24:03.474Z,59.70097
2022-11-07T04:29:05.260Z,62.87548
2022-11-07T04:34:06.950Z,63.01695
2022-11-07T04:39:08.583Z,59.26901
2022-11-07T04:44:10.424Z,60.19953
2022-11-07T04:49:12.393Z,57.23363
2022-11-07T04:54:14.120Z,57.92874
2022-11-07T04:59:15.797Z,60.66306
2022-11-07T05:04:17.962Z,58.38989
2022-11-07T05:09:19.719Z,55.89376
2022-11-07T05:14:21.690Z,57.14616
2022-11-07T05:19:23.559Z,57.33943
2022-11-07T05:24:25.179Z,58.24525
2022-11-07T05:29:26.855Z,57.79358
2022-11-07T05:34:28.668Z,56.43734
2022-11-07T05:39:33.725Z,55.85006
2022-11-07T05:44:35.372Z,57.3369
2022-11-07T05:49:37.063Z,53.75164
2022-11-07T05:54:38.841Z,51.54169
2022-11-07T05:59:40.438Z,54.2304
2022-11-07T06:04:42.174Z,53.00864
2022-11-07T06:09:43.911Z,49.36372
2022-11-07T06:14:45.918Z,49.35489
2022-11-07T06:19:47.660Z,51.63919
2022-11-07T06:24:49.398Z,49.22782
2022-11-07T06:29:51.260Z,51.29154
2022-11-07T06:34:52.840Z,54.14833
2022-11-07T06:39:54.548Z,50.89263
2022-11-07T06:44:56.209Z,52.51788
2022-11-07T06:49:57.875Z,48.38715
2022-11-07T06:54:59.547Z,50.25142
2022-11-07T07:00:01.573Z,51.13345
2022-11-07T07:05:03.451Z,52.86479
2022-11-07T07:10:05.076Z,52.34074
2022-11-07T07:15:07.156Z,51.32575
2022-11-07T07:20:08.899Z,49.58384
2022-11-07T07:25:10.606Z,49.60285
2022-11-07T07:30:12.415Z,49.48609
2022-11-07T07:35:14.045Z,50.80247
2022-11-07T07:40:16.156Z,50.23146
2022-11-07T07:45:17.871Z,47.4495
2022-11-07T07:50:19.535Z,49.93007
2022-11-07T07:55:21.127Z,47.45141
2022-11-07T08:00:22.768Z,50.30739
2022-11-07T08:05:24.470Z,50.37277
2022-11-07T08:10:41.001Z,50.079
2022-11-07T08:15:44.010Z,51.93529
2022-11-07T08:20:45.657Z,51.82387
2022-11-07T08:25:47.306Z,53.18118
2022-11-07T08:30:49.046Z,53.19498
2022-11-07T08:35:50.665Z,52.59106
2022-11-07T08:40:52.307Z,51.56949
2022-11-07T08:45:53.986Z,52.39781
2022-11-07T08:50:55.626Z,51.81338
2022-11-07T08:55:57.372Z,52.87767
2022-11-07T09:00:59.175Z,54.16394
2022-11-07T09:06:00.942Z,56.72038
2022-11-07T09:11:02.736Z,57.88523
2022-11-07T09:16:04.714Z,57.07258
2022-11-07T09:21:06.522Z,58.37965
2022-11-07T09:26:08.227Z,57.29646
2022-11-07T09:31:09.850Z,55.22161
2022-11-07T09:36:11.652Z,54.79405
2022-11-07T09:41:13.444Z,58.45307
2022-11-07T09:46:15.130Z,60.22793
2022-11-07T09:51:16.748Z,60.4482
2022-11-07T09:56:18.373Z,58.67691
2022-11-07T10:01:20.283Z,60.57455
2022-11-07T10:06:24.374Z,63.4463
2022-11-07T10:11:26.279Z,65.3336
2022-11-07T10:16:27.895Z,63.97898
2022-11-07T10:21:38.472Z,66.60393
2022-11-07T10:26:40.932Z,67.97504
2022-11-07T10:31:42.773Z,71.59147
2022-11-07T10:36:44.569Z,69.06976
2022-11-07T10:41:46.446Z,66.41211
2022-11-07T10:46:51.542Z,65.46975
2022-11-07T10:51:56.559Z,65.879
2022-11-07T10:56:58.170Z,64.18665
2022-11-07T11:01:59.904Z,61.8687
2022-11-07T11:07:01.557Z,61.33581
2022-11-07T11:12:03.178Z,62.21766
2022-11-07T11:17:04.970Z,64.04684
2022-11-07T11:22:09.598Z,64.64126
2022-11-07T11:27:11.580Z,60.8292
2022-11-07T11:32:13.506Z,56.34245
2022-11-07T11:37:15.129Z,58.97481
2022-11-07T11:42:16.860Z,57.45202
2022-11-07T11:47:18.605Z,55.74573
2022-11-07T11:52:20.320Z,60.87855
2022-11-07T11:57:22.828Z,61.66267
2022-11-07T12:02:24.731Z,63.64906
2022-11-07T12:07:26.420Z,62.48985
2022-11-07T12:12:28.041Z,65.41607
2022-11-07T12:17:29.664Z,68.00466
2022-11-07T12:22:31.313Z,71.18446
2022-11-07T12:27:33.073Z,68.62037
2022-11-07T12:32:34.732Z,70.36292
2022-11-07T12:37:36.375Z,71.73592
2022-11-07T12:42:38.089Z,71.06826
2022-11-07T12:47:39.755Z,71.79504
2022-11-07T12:52:41.436Z,72.7872
2022-11-07T12:57:43.099Z,71.01569
2022-11-07T13:02:44.938Z,71.00685
2022-11-07T13:07:46.568Z,70.57409
2022-11-07T13:12:48.216Z,69.25498
2022-11-07T13:17:49.946Z,72.49233
2022-11-07T13:22:51.514Z,71.13162
2022-11-07T13:27:53.363Z,72.60923
2022-11-07T13:32:57.041Z,66.16418
2022-11-07T13:37:58.704Z,66.3662
2022-11-07T13:43:00.329Z,66.35704
2022-11-07T13:48:01.989Z,67.82021
2022-11-07T13:53:03.650Z,66.53383
2022-11-07T13:58:05.400Z,66.79866
2022-11-07T14:03:07.088Z,69.34541
2022-11-07T14:08:08.741Z,66.10001
2022-11-07T14:13:10.462Z,66.11648
2022-11-07T14:18:12.230Z,67.97687
2022-11-07T14:23:13.931Z,68.43007
2022-11-07T14:28:16.026Z,71.42707
2022-11-07T14:33:17.957Z,68.06775
2022-11-07T14:38:20.035Z,69.78778
2022-11-07T14:43:21.912Z,69.76838
2022-11-07T14:48:23.530Z,70.29023
2022-11-07T14:53:25.201Z,69.03031
2022-11-07T14:58:26.944Z,66.80155
2022-11-07T15:03:28.658Z,72.70505
2022-11-07T15:08:35.401Z,73.19691
2022-11-07T15:13:37.229Z,71.13104
2022-11-07T15:18:38.889Z,67.20822
2022-11-07T15:23:40.508Z,69.43501
2022-11-07T15:28:42.185Z,68.83394
2022-11-07T15:33:43.903Z,68.22807
2022-11-07T15:38:45.534Z,70.06518
2022-11-07T15:43:47.135Z,69.62905
2022-11-07T15:48:48.811Z,70.69875
2022-11-07T15:53:50.515Z,67.58386
2022-11-07T15:59:04.939Z,67.40063
2022-11-07T16:04:07.875Z,66.57498
2022-11-07T16:09:09.480Z,66.6934
2022-11-07T16:14:38.080Z,67.10682
2022-11-07T16:19:45.148Z,64.67278
2022-11-07T16:24:46.784Z,64.97301
2022-11-07T16:29:48.381Z,67.59558
2022-11-07T16:34:50.089Z,66.91621
2022-11-07T16:45:02.597Z,67.51834
2022-11-07T16:50:04.274Z,63.93351
2022-11-07T16:55:05.958Z,63.98941
2022-11-07T17:00:07.785Z,66.37422
2022-11-07T17:05:09.459Z,64.76789
2022-11-07T17:10:11.128Z,64.417
2022-11-07T17:15:13.127Z,62.40547
2022-11-07T17:20:28.395Z,62.22379
2022-11-07T17:25:42.740Z,61.23098
2022-11-07T17:30:44.946Z,63.74107
2022-11-07T17:35:46.566Z,64.95495
2022-11-07T17:40:48.151Z,67.0165
2022-11-07T17:45:49.843Z,69.38423
2022-11-07T17:50:51.495Z,70.18549
2022-11-07T17:55:53.167Z,69.69049
2022-11-07T18:00:54.837Z,65.3798
2022-11-07T18:05:56.557Z,66.70216
2022-11-07T18:10:58.192Z,65.03515
2022-11-07T18:15:59.859Z,66.70971
2022-11-07T18:21:01.599Z,67.4846
2022-11-07T18:26:03.202Z,68.91336
2022-11-07T18:31:06.295Z,68.11134
2022-11-07T18:36:08.080Z,68.70366
2022-11-07T18:41:09.738Z,68.42398
2022-11-07T18:46:11.416Z,69.3341
2022-11-07T18:51:13.058Z,69.37123
2022-11-07T18:56:14.889Z,67.79483
2022-11-07T19:01:16.624Z,69.23597
2022-11-07T19:06:18.291Z,66.85783
2022-11-07T19:11:19.931Z,65.2741
2022-11-07T19:16:21.583Z,67.11219
2022-11-07T19:21:23.744Z,70.4738
2022-11-07T19:26:25.420Z,69.45808
2022-11-07T19:31:32.016Z,65.33722
2022-11-07T19:36:36.375Z,70.01326
2022-11-07T19:41:38.126Z,65.20121
2022-11-07T19:46:39.892Z,66.32084
2022-11-07T19:51:41.556Z,65.6103
2022-11-07T19:56:43.198Z,68.62647
2022-11-07T20:01:54.333Z,67.67845
2022-11-07T20:07:06.306Z,68.77846
2022-11-07T20:12:07.946Z,66.34998
2022-11-07T20:17:09.594Z,65.30218
2022-11-07T20:22:11.449Z,65.6304
2022-11-07T20:27:13.119Z,70.19589
2022-11-07T20:32:14.753Z,69.04924
2022-11-07T20:37:16.376Z,69.13939
2022-11-07T20:42:18.010Z,66.8761
2022-11-07T20:47:19.747Z,70.60722
2022-11-07T20:52:21.956Z,66.75709
2022-11-07T20:57:23.550Z,66.85602
2022-11-07T21:02:25.403Z,67.41288
2022-11-07T21:07:27.142Z,70.65698
2022-11-07T21:12:28.918Z,70.53638
2022-11-07T21:17:30.703Z,71.94281
2022-11-07T21:22:32.384Z,70.00465
2022-11-07T21:27:34.181Z,71.03822
2022-11-07T21:32:35.809Z,71.77619
2022-11-07T21:37:37.449Z,71.02332
2022-11-07T21:42:39.204Z,68.05992
2022-11-07T21:47:45.735Z,63.95181
2022-11-07T21:52:47.852Z,63.03943
2022-11-07T21:57:49.477Z,62.48611
2022-11-07T22:02:51.053Z,63.48138
2022-11-07T22:07:53.033Z,65.09846
2022-11-07T22:12:54.623Z,64.45154
2022-11-07T22:17:56.335Z,65.3891
2022-11-07T22:22:58.093Z,65.93071
2022-11-07T22:28:00.061Z,67.53305
2022-11-07T22:33:01.667Z,66.88596
2022-11-07T22:38:03.273Z,65.83193
2022-11-07T22:43:05.525Z,65.17178
2022-11-07T22:48:07.135Z,66.08758
2022-11-07T22:53:08.830Z,66.41789
2022-11-07T22:58:10.626Z,68.26184
2022-11-07T23:03:13.006Z,68.61853
2022-11-07T23:08:15.028Z,69.34291
2022-11-07T23:13:18.020Z,69.0818
2022-11-07T23:18:20.168Z,65.62694
2022-11-07T23:23:28.786Z,66.6139
2022-11-07T23:24:33.388Z,66.74248
2022-11-07T23:26:43.822Z,65.55079
2022-11-07T23:31:45.449Z,62.90805
2022-11-07T23:36:47.159Z,63.59931
2022-11-07T23:41:48.865Z,66.16586
2022-11-07T23:46:50.474Z,64.64541
2022-11-07T23:51:52.235Z,67.17745
2022-11-07T23:56:53.868Z,64.94985
